• Join FlightAware (Why Join?)
  • Login
  • US Flag 
04:23PM EDT


 

Airport Tracker/Info


-or-


 

Live Flight TrackerFlight Track Log ✈ N333HC ✈ 29-Jul-2013 ✈ KAUS - KMDD

Flight Track Log - Related Links

Times and Time Zones

All times are in EDT time to prevent confusion due to time zone crossing. See the N333HC flight status page for this flight to view local times or setup timezone preferences in your user account.

Time Position Orientation Groundspeed Altitude Reporting Facility
EDT Latitude Longitude Course Direction KTS MPH feet Rate Location/Type
03:25PM 30.1528 -97.7325 293° West 164 189 5,600  Level Houston Center
03:26PM 30.1869 -97.7747 313° West 175 201 6,900 1,560 Climbing Houston Center
03:27PM 30.2225 -97.8206 312° West 185 213 8,900 1,740 Climbing Houston Center
03:28PM 30.2525 -97.8719 304° West 189 217 10,500 1,560 Climbing Houston Center
03:29PM 30.4352 -97.7218 293° West  Level FlightAware Approximate
03:29PM 30.2883 -97.9328 304° West 199 229 12,200  Level Houston Center
03:30PM 30.4621 -97.7956 293° West  Level FlightAware Approximate
03:30PM 30.3236 -97.9867 307° West 208 239 13,700  Level Houston Center
03:31PM 30.3600 -98.0519 303° West 221 254 14,000 1,140 Climbing Houston Center
03:32PM 30.3889 -98.1200 296° West 230 265 16,100 1,500 Climbing Houston Center
03:33PM 30.4164 -98.1811 298° West 214 246 17,200 1,080 Climbing Houston Center
03:34PM 30.4444 -98.2444 297° West 218 251 18,400 1,200 Climbing Houston Center
03:35PM 30.4722 -98.3083 297° West 220 253 19,700 1,140 Climbing Houston Center
03:36PM 30.4981 -98.3722 295° West 217 250 20,800 960 Climbing Houston Center
03:37PM 30.5275 -98.4369 298° West 222 255 21,700 480 Climbing Houston Center
03:38PM 30.5558 -98.5058 296° West 232 267 21,900 60 Climbing Houston Center
03:39PM 30.5947 -98.5961 297° West 259 298 21,900  Level Houston Center
03:40PM 30.6297 -98.6750 297° West 269 310 21,900  Level Houston Center
03:41PM 30.6639 -98.7542 297° West 271 312 21,900  Level Houston Center
03:42PM 30.6986 -98.8333 297° West 274 315 21,900  Level Houston Center
03:43PM 30.7322 -98.9128 296° West 272 313 21,900  Level Houston Center
03:44PM 30.7661 -98.9942 296° West 276 318 21,900  Level Houston Center
03:45PM 30.8003 -99.0742 296° West 274 315 21,900  Level Houston Center
03:46PM 30.8394 -99.1639 297° West 273 314 21,900  Level Houston Center
03:47PM 30.8731 -99.2431 296° West 273 314 21,900  Level Houston Center
03:48PM 30.9069 -99.3219 297° West 273 314 21,900  Level Houston Center
03:49PM 30.9397 -99.4006 296° West 272 313 21,900  Level Houston Center
03:50PM 30.9778 -99.4917 296° West 263 303 21,900  Level Houston Center
03:51PM 31.0103 -99.5675 297° West 263 303 21,900  Level Houston Center
03:53PM 31.0417 -99.6442 296° West 263 303 21,900  Level Houston Center
03:54PM 31.0736 -99.7233 295° West 267 307 21,900  Level Houston Center
03:55PM 31.1067 -99.8006 297° West 268 308 21,900  Level Houston Center
03:56PM 31.1406 -99.8786 297° West 269 310 21,900  Level Houston Center
03:57PM 31.1794 -99.9736 296° West 269 310 21,900  Level Houston Center
03:58PM 31.2119 -100.0536 295° West 273 314 21,900  Level Houston Center
03:59PM 31.2458 -100.1336 296° West 276 318 21,900  Level Houston Center
04:00PM 31.2786 -100.2136 296° West 275 316 21,900  Level Houston Center
04:01PM 31.3122 -100.2922 297° West 273 314 21,900  Level Houston Center
04:02PM 31.3519 -100.3894 296° West 276 318 21,900  Level Houston Center
04:03PM 31.3844 -100.4703 295° West 276 318 21,900  Level Houston Center
04:04PM 31.4183 -100.5514 296° West 278 320 21,900 -60 Level Houston Center
04:05PM 31.4517 -100.6311 296° West 276 318 21,800  Descending Houston Center
04:06PM 31.4842 -100.7119 295° West 275 316 21,900  Climbing Houston Center
04:07PM 31.5283 -100.8206 296° West 272 313 21,900 -300 Level Fort Worth Center
04:08PM 31.5594 -100.9019 294° West 277 319 21,300 -960 Descending Fort Worth Center
04:09PM 31.5925 -100.9861 295° West 282 325 20,000 -1,320 Descending Fort Worth Center
04:10PM 31.6278 -101.0706 296° West 282 325 18,700 -1,320 Descending Fort Worth Center
04:11PM 31.6608 -101.1522 295° West 277 319 17,400 -1,260 Descending Fort Worth Center
04:12PM 31.7022 -101.2297 302° West 277 319 16,200 -1,260 Descending Fort Worth Center
04:13PM 31.7481 -101.3050 306° West 283 326 14,900 -1,080 Descending Fort Worth Center
04:14PM 31.7958 -101.3753 309° West 283 326 14,100 -480 Descending Fort Worth Center
04:15PM 31.8311 -101.4478 300° West 273 314 14,000 -60 Descending Fort Worth Center
04:16PM 31.8625 -101.5153 299° West 252 290 14,000 -780 Level Fort Worth Center
04:17PM 31.8936 -101.5850 298° West 246 283 12,500 -1,680 Descending Fort Worth Center
04:18PM 31.9158 -101.6669 288° West 246 283 10,700 -2,280 Descending Fort Worth Center
04:19PM 31.9361 -101.7486 286° West 246 283 8,000 -1,980 Descending Fort Worth Center
04:20PM 31.9606 -101.8183 292° West 246 283 6,800 -1,020 Descending Fort Worth Center
04:21PM 31.9900 -101.8761 301° West 225 259 6,000 -600 Descending Fort Worth Center
04:22PM 32.0108 -101.9308 294° West 204 235 5,700 -360 Descending Fort Worth Center
04:23PM 32.0297 -101.9858 292° West 192 221 5,300 -900 Descending Fort Worth Center
04:24PM 32.0531 -102.0358 299° West 185 213 4,000 -1,080 Descending Fort Worth Center
04:25PM 32.0453 -102.0797 258° West 171 197 3,200 -840 Descending Fort Worth Center